Time;durP1;ratioP1;P1;durP2;ratioP2;P2;SDS_P1;SDS_P2;PMS_P1;PMS_P2;Temp;Humidity;BMP_temperature;BMP_pressure;BME280_temperature;BME280_humidity;BME280_pressure;Samples;Min_cycle;Max_cycle;Signal;HPM_P1;HPM_P2
2022/01/12 07:23:31;;;;;;;;;70.00;46.25;;;;;-149.69;100.00;58464.25;6238690;22;11086;-95
2022/01/12 07:25:57;;;;;;;;;69.50;49.50;;;;;-149.69;100.00;58464.25;6255367;22;11837;-89
2022/01/12 07:28:23;;;;;;;;;66.50;48.00;;;;;-149.69;100.00;58464.25;6275701;22;11133;-89
2022/01/12 07:30:49;;;;;;;;;70.25;52.00;;;;;-149.69;100.00;58464.25;6253648;22;8772;-90
2022/01/12 07:33:15;;;;;;;;;73.50;52.25;;;;;-149.69;100.00;58464.25;6250748;22;8725;-93
2022/01/12 07:35:41;;;;;;;;;59.25;46.25;;;;;-149.69;100.00;58464.25;6251221;22;11498;-90
2022/01/12 07:38:12;;;;;;;;;64.75;48.25;;;;;-149.69;100.00;58464.25;6251694;22;11068;-92
2022/01/12 07:40:37;;;;;;;;;66.50;48.00;;;;;-149.69;100.00;58464.25;6277371;22;11267;-95
2022/01/12 07:43:06;;;;;;;;;67.75;48.50;;;;;-149.69;100.00;58464.25;6252700;22;11287;-92
2022/01/12 07:45:33;;;;;;;;;64.00;48.00;;;;;-149.69;100.00;58464.25;6261988;22;8771;-93
2022/01/12 07:47:58;;;;;;;;;65.00;51.50;;;;;-149.69;100.00;58464.25;6261395;22;11478;-91
2022/01/12 07:50:24;;;;;;;;;62.25;48.50;;;;;-149.69;100.00;58464.25;6260951;22;11480;-92
2022/01/12 07:52:53;;;;;;;;;57.00;45.75;;;;;-149.69;100.00;58464.25;6259869;22;8812;-92
2022/01/12 07:55:23;;;;;;;;;75.75;57.00;;;;;-149.69;100.00;58464.25;6259190;22;11407;-91
2022/01/12 07:57:49;;;;;;;;;56.25;46.75;;;;;-149.69;100.00;58464.25;6252806;22;11513;-92
2022/01/12 08:00:16;;;;;;;;;67.00;47.75;;;;;-149.69;100.00;58464.25;6252309;22;11490;-92
2022/01/12 08:02:42;;;;;;;;;61.25;48.50;;;;;-149.69;100.00;58464.25;6252225;22;11467;-91
2022/01/12 08:05:08;;;;;;;;;70.00;49.75;;;;;-149.69;100.00;58464.25;6252483;22;10954;-92
2022/01/12 08:07:36;;;;;;;;;65.00;46.50;;;;;-149.69;100.00;58464.25;6250915;22;8788;-92
2022/01/12 08:10:04;;;;;;;;;70.75;47.75;;;;;-149.69;100.00;58464.25;6252463;22;11208;-93
2022/01/12 08:12:29;;;;;;;;;68.75;46.75;;;;;-149.69;100.00;58464.25;6251297;22;11072;-91
2022/01/12 08:14:54;;;;;;;;;62.25;48.75;;;;;-149.69;100.00;58464.25;6251138;22;11111;-91
2022/01/12 08:17:20;;;;;;;;;65.00;45.50;;;;;-149.69;100.00;58464.25;6251429;22;17085;-91
2022/01/12 08:19:45;;;;;;;;;68.75;49.25;;;;;-149.69;100.00;58464.25;6251254;22;8891;-91
2022/01/12 08:22:11;;;;;;;;;63.50;49.25;;;;;-149.69;100.00;58464.25;6252304;22;8776;-93
2022/01/12 08:24:36;;;;;;;;;70.75;51.50;;;;;-149.69;100.00;58464.25;6228279;22;9501;-91
2022/01/12 08:27:02;;;;;;;;;66.25;48.00;;;;;-149.69;100.00;58464.25;6218252;23;9904;-91
2022/01/12 08:29:29;;;;;;;;;67.75;50.50;;;;;-149.69;100.00;58464.25;6220925;23;8877;-91
2022/01/12 08:31:55;;;;;;;;;65.75;46.00;;;;;-149.69;100.00;58464.25;6221517;23;8817;-93
2022/01/12 08:34:21;;;;;;;;;57.75;41.75;;;;;-149.69;100.00;58464.25;6244685;22;11506;-93
2022/01/12 08:36:46;;;;;;;;;66.00;47.50;;;;;-149.69;100.00;58464.25;6245920;22;11218;-92
2022/01/12 08:39:12;;;;;;;;;56.75;44.75;;;;;-149.69;100.00;58464.25;6221707;23;11280;-94
2022/01/12 08:41:38;;;;;;;;;56.25;42.25;;;;;-149.69;100.00;58464.25;6228199;23;8850;-93
2022/01/12 08:44:08;;;;;;;;;57.50;44.00;;;;;-149.69;100.00;58464.25;6256910;22;8845;-93
2022/01/12 08:46:36;;;;;;;;;48.50;40.50;;;;;-149.69;100.00;58464.25;6255824;22;11139;-93
2022/01/12 08:49:02;;;;;;;;;63.75;51.25;;;;;-149.69;100.00;58464.25;6253249;22;11182;-93
2022/01/12 08:51:27;;;;;;;;;62.00;49.25;;;;;-149.69;100.00;58464.25;6228802;23;11493;-93
2022/01/12 08:53:53;;;;;;;;;71.25;49.00;;;;;-149.69;100.00;58464.25;6248881;22;11478;-93
2022/01/12 08:56:19;;;;;;;;;69.00;47.75;;;;;-149.69;100.00;58464.25;6247130;22;8756;-92
2022/01/12 08:58:45;;;;;;;;;58.50;44.25;;;;;-149.69;100.00;58464.25;6245309;22;8752;-93
2022/01/12 09:01:10;;;;;;;;;64.00;47.25;;;;;-149.69;100.00;58464.25;6247185;22;11873;-93
2022/01/12 09:03:37;;;;;;;;;61.75;46.50;;;;;-149.69;100.00;58464.25;6247298;22;8771;-94
2022/01/12 09:06:03;;;;;;;;;71.00;51.00;;;;;-149.69;100.00;58464.25;6247024;22;8774;-94
2022/01/12 09:08:29;;;;;;;;;63.50;43.25;;;;;-149.69;100.00;58464.25;6250471;22;11269;-93
2022/01/12 09:10:54;;;;;;;;;66.50;51.00;;;;;-149.69;100.00;58464.25;6246665;22;9494;-93
2022/01/12 09:13:20;;;;;;;;;64.50;45.50;;;;;-149.69;100.00;58464.25;6243347;22;9467;-93
2022/01/12 09:15:45;;;;;;;;;59.25;45.00;;;;;-149.69;100.00;58464.25;6247741;22;8853;-94
2022/01/12 09:18:11;;;;;;;;;51.50;43.25;;;;;-149.69;100.00;58464.25;6247466;22;8760;-93
2022/01/12 09:20:36;;;;;;;;;62.75;45.75;;;;;-149.69;100.00;58464.25;6221692;23;8779;-94
2022/01/12 09:23:02;;;;;;;;;59.25;47.00;;;;;-149.69;100.00;58464.25;6226879;22;8794;-93
2022/01/12 09:25:28;;;;;;;;;54.75;42.25;;;;;-149.69;100.00;58464.25;6279812;22;8759;-91
2022/01/12 09:27:54;;;;;;;;;52.75;42.25;;;;;-149.69;100.00;58464.25;6256278;22;10639;-92
2022/01/12 09:30:19;;;;;;;;;65.00;50.00;;;;;-149.69;100.00;58464.25;6282728;22;8770;-93
2022/01/12 09:32:45;;;;;;;;;55.25;39.75;;;;;-149.69;100.00;58464.25;6284982;22;8762;-93
2022/01/12 09:35:12;;;;;;;;;54.25;45.00;;;;;-149.69;100.00;58464.25;6265011;22;8852;-92
2022/01/12 09:37:37;;;;;;;;;65.00;49.75;;;;;-149.69;100.00;58464.25;6264655;22;8734;-93
2022/01/12 09:40:04;;;;;;;;;63.25;46.00;;;;;-149.69;100.00;58464.25;6266480;22;11529;-92
2022/01/12 09:42:29;;;;;;;;;56.50;45.25;;;;;-149.69;100.00;58464.25;6264570;22;8801;-93
2022/01/12 09:44:56;;;;;;;;;59.25;43.75;;;;;-149.69;100.00;58464.25;6287818;22;10911;-93
2022/01/12 09:47:21;;;;;;;;;55.75;45.50;;;;;-149.69;100.00;58464.25;6257633;22;8742;-93
2022/01/12 09:49:47;;;;;;;;;46.75;42.00;;;;;-149.69;100.00;58464.25;6256783;22;10775;-93
2022/01/12 09:52:13;;;;;;;;;63.75;48.00;;;;;-149.69;100.00;58464.25;6257730;22;8777;-93
2022/01/12 09:54:39;;;;;;;;;62.50;47.25;;;;;-149.69;100.00;58464.25;6258577;22;8840;-93
2022/01/12 09:57:05;;;;;;;;;60.00;43.50;;;;;-149.69;100.00;58464.25;6257976;22;10914;-93
2022/01/12 09:59:31;;;;;;;;;60.25;49.25;;;;;-149.69;100.00;58464.25;6256566;22;10785;-93
2022/01/12 10:01:58;;;;;;;;;58.75;46.50;;;;;-149.69;100.00;58464.25;6257570;22;8755;-93
2022/01/12 10:04:30;;;;;;;;;59.75;45.00;;;;;-149.69;100.00;58464.25;6258414;22;8853;-93
2022/01/12 10:07:04;;;;;;;;;69.25;53.50;;;;;-149.69;100.00;58464.25;6258849;22;10888;-93
2022/01/12 10:09:36;;;;;;;;;63.75;49.00;;;;;-149.69;100.00;58464.25;6258645;22;11378;-93
2022/01/12 10:12:05;;;;;;;;;62.50;48.50;;;;;-149.69;100.00;58464.25;6284632;22;11492;-93
2022/01/12 10:14:58;;;;;;;;;61.00;45.00;;;;;-149.69;100.00;58464.25;6256535;22;10927;-93
2022/01/12 10:17:44;;;;;;;;;62.00;48.00;;;;;-149.69;100.00;58464.25;6285717;22;10735;-93
2022/01/12 10:20:21;;;;;;;;;75.75;53.75;;;;;-149.69;100.00;58464.25;6258313;22;10867;-93
2022/01/12 10:23:02;;;;;;;;;57.25;46.50;;;;;-149.69;100.00;58464.25;6257806;22;11104;-92
2022/01/12 10:25:29;;;;;;;;;60.25;44.25;;;;;-149.69;100.00;58464.25;6257893;22;10845;-94
2022/01/12 10:27:55;;;;;;;;;56.50;46.00;;;;;-149.69;100.00;58464.25;6265833;22;10935;-93
2022/01/12 10:30:22;;;;;;;;;58.75;41.25;;;;;-149.69;100.00;58464.25;6267699;22;10826;-93
2022/01/12 10:32:58;;;;;;;;;67.75;50.75;;;;;-149.69;100.00;58464.25;6293545;22;10638;-93
2022/01/12 10:35:29;;;;;;;;;58.75;45.25;;;;;-149.69;100.00;58464.25;6291499;22;11093;-93
2022/01/12 10:38:05;;;;;;;;;59.75;45.25;;;;;-149.69;100.00;58464.25;6261510;22;10919;-93
2022/01/12 10:40:48;;;;;;;;;62.00;46.50;;;;;-149.69;100.00;58464.25;6284873;22;10747;-93
2022/01/12 10:43:32;;;;;;;;;61.50;48.25;;;;;-149.69;100.00;58464.25;6285126;22;10917;-93
2022/01/12 10:45:59;;;;;;;;;65.50;47.75;;;;;-149.69;100.00;58464.25;6284132;22;10877;-93
2022/01/12 10:48:37;;;;;;;;;55.25;41.75;;;;;-149.69;100.00;58464.25;6256715;22;10880;-93
2022/01/12 10:51:02;;;;;;;;;58.50;45.25;;;;;-149.69;100.00;58464.25;6255338;22;10846;-93
2022/01/12 10:53:31;;;;;;;;;60.25;45.75;;;;;-149.69;100.00;58464.25;6283197;22;10765;-93
2022/01/12 10:56:08;;;;;;;;;59.25;43.25;;;;;-149.69;100.00;58464.25;6257838;22;8801;-93
2022/01/12 10:58:37;;;;;;;;;62.25;45.25;;;;;-149.69;100.00;58464.25;6282645;22;10694;-93
2022/01/12 11:01:03;;;;;;;;;62.00;46.50;;;;;-149.69;100.00;58464.25;6256576;22;11005;-94
2022/01/12 11:03:32;;;;;;;;;67.00;48.25;;;;;-149.69;100.00;58464.25;6281574;22;10834;-93
2022/01/12 11:05:58;;;;;;;;;57.75;46.00;;;;;-149.69;100.00;58464.25;6284975;22;11127;-93
2022/01/12 11:08:25;;;;;;;;;61.25;47.50;;;;;-149.69;100.00;58464.25;6285017;22;10745;-93
2022/01/12 11:10:55;;;;;;;;;59.00;45.75;;;;;-149.69;100.00;58464.25;6285021;22;11056;-94
2022/01/12 11:13:20;;;;;;;;;62.25;46.25;;;;;-149.69;100.00;58464.25;6255146;22;10896;-93
2022/01/12 11:15:47;;;;;;;;;64.00;48.25;;;;;-149.69;100.00;58464.25;6284644;22;10871;-93
2022/01/12 11:18:15;;;;;;;;;61.00;46.50;;;;;-149.69;100.00;58464.25;6256642;22;8730;-94
2022/01/12 11:20:43;;;;;;;;;63.25;46.75;;;;;-149.69;100.00;58464.25;6288941;22;10847;-93
2022/01/12 11:23:11;;;;;;;;;46.25;42.25;;;;;-149.69;100.00;58464.25;6263753;22;10880;-94
2022/01/12 11:25:40;;;;;;;;;61.75;47.75;;;;;-149.69;100.00;58464.25;6264801;22;10945;-95
2022/01/12 11:28:16;;;;;;;;;62.25;47.50;;;;;-149.69;100.00;58464.25;6265358;22;11087;-95
2022/01/12 11:30:58;;;;;;;;;57.00;44.25;;;;;-149.69;100.00;58464.25;6291258;22;10840;-94
2022/01/12 11:33:29;;;;;;;;;61.75;48.75;;;;;-149.69;100.00;58464.25;6257791;22;11698;-94
2022/01/12 11:35:59;;;;;;;;;61.00;49.00;;;;;-149.69;100.00;58464.25;6281591;22;11032;-94
2022/01/12 11:38:26;;;;;;;;;61.75;48.75;;;;;-149.69;100.00;58464.25;6255721;22;11001;-94
2022/01/12 11:40:54;;;;;;;;;66.00;51.25;;;;;-149.69;100.00;58464.25;6285377;22;11026;-94
2022/01/12 11:43:29;;;;;;;;;68.75;52.75;;;;;-149.69;100.00;58464.25;6284847;22;11125;-94
2022/01/12 11:46:11;;;;;;;;;65.00;51.50;;;;;-149.69;100.00;58464.25;6278439;22;11450;-92
2022/01/12 11:48:46;;;;;;;;;68.00;51.00;;;;;-149.69;100.00;58464.25;6281683;22;11343;-94
2022/01/12 11:51:13;;;;;;;;;68.25;51.25;;;;;-149.69;100.00;58464.25;6285519;22;11456;-92
2022/01/12 11:53:46;;;;;;;;;68.50;53.25;;;;;-149.69;100.00;58464.25;6285963;22;11419;-96
2022/01/12 11:56:13;;;;;;;;;68.00;53.50;;;;;-149.69;100.00;58464.25;6284282;22;11525;-93
2022/01/12 11:58:59;;;;;;;;;62.50;49.75;;;;;-149.69;100.00;58464.25;6281696;22;11446;-94
2022/01/12 12:01:38;;;;;;;;;58.25;45.50;;;;;-149.69;100.00;58464.25;6284667;22;11217;-92
2022/01/12 12:04:04;;;;;;;;;64.75;45.00;;;;;-149.69;100.00;58464.25;6256717;22;11727;-92
2022/01/12 12:06:30;;;;;;;;;60.75;47.25;;;;;-149.69;100.00;58464.25;6282199;22;11950;-94
2022/01/12 12:09:10;;;;;;;;;62.00;45.75;;;;;-149.69;100.00;58464.25;6254762;22;10968;-93
2022/01/12 12:11:35;;;;;;;;;69.00;52.00;;;;;-149.69;100.00;58464.25;6284968;22;8758;-93
2022/01/12 12:14:04;;;;;;;;;62.50;49.00;;;;;-149.69;100.00;58464.25;6259736;22;11442;-95
2022/01/12 12:16:30;;;;;;;;;60.75;46.00;;;;;-149.69;100.00;58464.25;6294102;22;8707;-95
2022/01/12 12:18:56;;;;;;;;;59.25;47.25;;;;;-149.69;100.00;58464.25;6266445;22;10923;-92
2022/01/12 12:21:21;;;;;;;;;64.50;50.00;;;;;-149.69;100.00;58464.25;6268441;22;11476;-94
2022/01/12 12:23:47;;;;;;;;;60.50;47.50;;;;;-149.69;100.00;58464.25;6293459;22;11076;-96
2022/01/12 12:26:18;;;;;;;;;56.75;44.75;;;;;-149.69;100.00;58464.25;6289455;22;8754;-96
2022/01/12 12:28:52;;;;;;;;;61.75;49.50;;;;;-149.69;100.00;58464.25;6257661;22;10923;-90
2022/01/12 12:31:23;;;;;;;;;60.00;49.00;;;;;-149.69;100.00;58464.25;6260776;22;11224;-96
2022/01/12 12:34:05;;;;;;;;;68.00;52.25;;;;;-149.69;100.00;58464.25;6259487;22;11066;-93
2022/01/12 12:36:31;;;;;;;;;61.00;48.25;;;;;-149.69;100.00;58464.25;6257876;22;11465;-93
2022/01/12 12:39:09;;;;;;;;;57.50;46.75;;;;;-149.69;100.00;58464.25;6256028;22;11269;-93
2022/01/12 12:41:42;;;;;;;;;65.00;48.50;;;;;-149.69;100.00;58464.25;6256017;22;11063;-93
2022/01/12 12:44:27;;;;;;;;;32.00;22.25;;;;;-149.69;100.00;58464.25;6255649;22;11525;-92
2022/01/12 12:47:14;;;;;;;;;65.25;49.50;;;;;-149.69;100.00;58464.25;6256267;22;10974;-90
2022/01/12 12:49:57;;;;;;;;;57.00;47.25;;;;;-149.69;100.00;58464.25;6256302;22;11062;-92
2022/01/12 12:52:29;;;;;;;;;65.00;50.00;;;;;-149.69;100.00;58464.25;6256668;22;10985;-94
2022/01/12 12:54:57;;;;;;;;;61.25;48.75;;;;;-149.69;100.00;58464.25;6258096;22;11082;-94
2022/01/12 12:57:23;;;;;;;;;64.00;48.75;;;;;-149.69;100.00;58464.25;6255567;22;10985;-94
2022/01/12 12:59:51;;;;;;;;;60.75;49.75;;;;;-149.69;100.00;58464.25;6256984;22;12283;-94
2022/01/12 13:02:18;;;;;;;;;65.25;51.50;;;;;-149.69;100.00;58464.25;6257439;22;11083;-94
2022/01/12 13:04:44;;;;;;;;;60.50;49.00;;;;;-149.69;100.00;58464.25;6260861;22;11207;-95
2022/01/12 13:07:15;;;;;;;;;60.50;47.00;;;;;-149.69;100.00;58464.25;6264595;22;11224;-92
2022/01/12 13:09:40;;;;;;;;;57.75;47.75;;;;;-149.69;100.00;58464.25;6265439;22;8762;-93
2022/01/12 13:12:06;;;;;;;;;60.25;46.75;;;;;-149.69;100.00;58464.25;6260930;22;11413;-92
2022/01/12 13:14:41;;;;;;;;;63.00;50.00;;;;;-149.69;100.00;58464.25;6286127;22;8766;-92
2022/01/12 13:17:07;;;;;;;;;68.50;50.50;;;;;-149.69;100.00;58464.25;6262934;22;8750;-91
2022/01/12 13:21:07;;;;;;;;;65.50;50.25;;;;;-149.69;100.00;58464.25;6283268;22;11162;-91
2022/01/12 13:22:31;;;;;;;;;60.50;47.00;;;;;-149.69;100.00;58464.25;6282369;22;9440;-91
2022/01/12 13:24:58;;;;;;;;;61.50;50.75;;;;;-149.69;100.00;58464.25;6255221;22;11003;-92
2022/01/12 13:27:24;;;;;;;;;65.75;49.75;;;;;-149.69;100.00;58464.25;6283308;22;11264;-91
2022/01/12 13:29:51;;;;;;;;;63.00;49.00;;;;;-149.69;100.00;58464.25;6255210;22;11136;-92
2022/01/12 13:32:17;;;;;;;;;64.00;49.75;;;;;-149.69;100.00;58464.25;6256355;22;11429;-92
2022/01/12 13:35:01;;;;;;;;;69.50;51.50;;;;;-149.69;100.00;58464.25;6256057;22;11453;-91
2022/01/12 13:37:27;;;;;;;;;47.00;41.75;;;;;-149.69;100.00;58464.25;6254603;22;8876;-92
2022/01/12 13:40:22;;;;;;;;;61.25;50.75;;;;;-149.69;100.00;58464.25;6284216;22;11230;-91
2022/01/12 13:42:54;;;;;;;;;63.00;46.25;;;;;-149.69;100.00;58464.25;6253690;22;11404;-91
2022/01/12 13:45:27;;;;;;;;;67.25;51.00;;;;;-149.69;100.00;58464.25;6257063;22;11457;-92
2022/01/12 13:47:57;;;;;;;;;62.25;48.25;;;;;-149.69;100.00;58464.25;6255590;22;11060;-91
2022/01/12 13:50:30;;;;;;;;;62.00;48.75;;;;;-149.69;100.00;58464.25;6280524;22;11148;-91
2022/01/12 13:52:55;;;;;;;;;69.50;51.50;;;;;-149.69;100.00;58464.25;6255970;22;11134;-91
2022/01/12 13:55:21;;;;;;;;;64.75;48.75;;;;;-149.69;100.00;58464.25;6257037;22;11590;-91
2022/01/12 13:58:06;;;;;;;;;68.25;56.25;;;;;-149.69;100.00;58464.25;6255963;22;8770;-92
2022/01/12 14:00:34;;;;;;;;;67.50;52.00;;;;;-149.69;100.00;58464.25;6264535;22;8870;-91
2022/01/12 14:03:00;;;;;;;;;64.25;48.00;;;;;-149.69;100.00;58464.25;6264037;22;11472;-91
2022/01/12 14:05:38;;;;;;;;;61.75;50.00;;;;;-149.69;100.00;58464.25;6264794;22;10992;-92
2022/01/12 14:08:10;;;;;;;;;65.00;50.75;;;;;-149.69;100.00;58464.25;6263241;22;11333;-92
2022/01/12 14:10:36;;;;;;;;;61.50;48.50;;;;;-149.69;100.00;58464.25;6260429;22;11113;-92
2022/01/12 14:13:01;;;;;;;;;59.25;44.75;;;;;-149.69;100.00;58464.25;6280311;22;10974;-92
2022/01/12 14:15:30;;;;;;;;;65.00;52.25;;;;;-149.69;100.00;58464.25;6254636;22;8766;-91
2022/01/12 14:17:55;;;;;;;;;65.50;51.50;;;;;-149.69;100.00;58464.25;6282077;22;8754;-91
2022/01/12 14:20:36;;;;;;;;;59.00;48.00;;;;;-149.69;100.00;58464.25;6255915;22;11422;-93
2022/01/12 14:23:09;;;;;;;;;66.25;52.25;;;;;-149.69;100.00;58464.25;6283490;22;8782;-92
2022/01/12 14:25:40;;;;;;;;;65.00;50.00;;;;;-149.69;100.00;58464.25;6254563;22;11259;-92
2022/01/12 14:28:09;;;;;;;;;67.75;49.75;;;;;-149.69;100.00;58464.25;6279609;22;11473;-92
2022/01/12 14:30:35;;;;;;;;;66.75;53.25;;;;;-149.69;100.00;58464.25;6256032;22;11120;-93
2022/01/12 14:33:01;;;;;;;;;64.75;53.00;;;;;-149.69;100.00;58464.25;6255916;22;11497;-92
2022/01/12 14:35:26;;;;;;;;;67.50;53.00;;;;;-149.69;100.00;58464.25;6283440;22;11658;-92
2022/01/12 14:37:54;;;;;;;;;67.50;52.00;;;;;-149.69;100.00;58464.25;6254707;22;9470;-91
2022/01/12 14:40:20;;;;;;;;;67.25;53.50;;;;;-149.69;100.00;58464.25;6253873;22;8758;-92
2022/01/12 14:42:56;;;;;;;;;48.25;40.00;;;;;-149.69;100.00;58464.25;6282782;22;11438;-91
2022/01/12 14:45:32;;;;;;;;;63.75;50.50;;;;;-149.69;100.00;58464.25;6255956;22;11433;-92
2022/01/12 14:48:09;;;;;;;;;64.75;51.25;;;;;-149.69;100.00;58464.25;6256683;22;11455;-92
2022/01/12 14:50:35;;;;;;;;;70.00;52.00;;;;;-149.69;100.00;58464.25;6258025;22;11433;-92
2022/01/12 14:53:02;;;;;;;;;68.75;53.75;;;;;-149.69;100.00;58464.25;6264276;22;11464;-92
2022/01/12 14:55:29;;;;;;;;;71.75;56.00;;;;;-149.69;100.00;58464.25;6267974;22;8740;-93
2022/01/12 14:57:55;;;;;;;;;70.75;56.00;;;;;-149.69;100.00;58464.25;6264550;22;11350;-93
2022/01/12 15:00:24;;;;;;;;;70.00;53.75;;;;;-149.69;100.00;58464.25;6288728;22;12220;-92
2022/01/12 15:02:55;;;;;;;;;65.75;52.00;;;;;-149.69;100.00;58464.25;6257263;22;11430;-92
2022/01/12 15:05:24;;;;;;;;;68.75;54.25;;;;;-149.69;100.00;58464.25;6255422;22;11411;-92
2022/01/12 15:07:50;;;;;;;;;62.50;51.00;;;;;-149.69;100.00;58464.25;6256127;22;11413;-92
2022/01/12 15:10:16;;;;;;;;;66.25;53.00;;;;;-149.69;100.00;58464.25;6255976;22;12222;-92
2022/01/12 15:12:42;;;;;;;;;63.75;50.75;;;;;-149.69;100.00;58464.25;6256009;22;11480;-92
2022/01/12 15:15:10;;;;;;;;;64.50;51.25;;;;;-149.69;100.00;58464.25;6280224;22;11464;-92
2022/01/12 15:17:38;;;;;;;;;69.50;52.00;;;;;-149.69;100.00;58464.25;6255916;22;8758;-92
2022/01/12 15:20:09;;;;;;;;;64.75;52.00;;;;;-149.69;100.00;58464.25;6256482;22;12107;-92
2022/01/12 15:22:36;;;;;;;;;65.25;49.75;;;;;-149.69;100.00;58464.25;6255535;22;11410;-92
2022/01/12 15:25:02;;;;;;;;;62.50;51.25;;;;;-149.69;100.00;58464.25;6258124;22;11539;-94
2022/01/12 15:27:28;;;;;;;;;69.00;53.50;;;;;-149.69;100.00;58464.25;6257129;22;11525;-92
2022/01/12 15:29:55;;;;;;;;;68.00;52.00;;;;;-149.69;100.00;58464.25;6283361;22;11423;-93
2022/01/12 15:32:20;;;;;;;;;64.75;51.75;;;;;-149.69;100.00;58464.25;6257893;22;8739;-91
2022/01/12 15:34:45;;;;;;;;;69.75;53.25;;;;;-149.69;100.00;58464.25;6282882;22;11446;-93
2022/01/12 15:37:11;;;;;;;;;71.00;49.00;;;;;-149.69;100.00;58464.25;6281741;22;8746;-91
2022/01/12 15:39:36;;;;;;;;;69.50;51.75;;;;;-149.69;100.00;58464.25;6257310;22;8734;-94
2022/01/12 15:42:02;;;;;;;;;81.00;57.50;;;;;-149.69;100.00;58464.25;6286948;22;8754;-93
2022/01/12 15:44:27;;;;;;;;;67.75;54.25;;;;;-149.69;100.00;58464.25;6293335;22;8848;-94
2022/01/12 15:46:53;;;;;;;;;70.50;55.25;;;;;-149.69;100.00;58464.25;6292345;22;8774;-93
2022/01/12 15:49:19;;;;;;;;;66.25;51.75;;;;;-149.69;100.00;58464.25;6287492;22;9626;-92
2022/01/12 15:51:44;;;;;;;;;71.00;53.75;;;;;-149.69;100.00;58464.25;6260659;22;11660;-92
2022/01/12 15:54:09;;;;;;;;;67.50;52.50;;;;;-149.69;100.00;58464.25;6258694;22;8766;-93
2022/01/12 15:56:35;;;;;;;;;72.75;55.25;;;;;-149.69;100.00;58464.25;6285949;22;8774;-92
2022/01/12 15:59:01;;;;;;;;;64.25;49.75;;;;;-149.69;100.00;58464.25;6256697;22;8747;-93
2022/01/12 16:01:26;;;;;;;;;72.00;55.25;;;;;-149.69;100.00;58464.25;6281083;22;8763;-92
2022/01/12 16:03:51;;;;;;;;;72.50;57.00;;;;;-149.69;100.00;58464.25;6254880;22;8754;-93
2022/01/12 16:06:17;;;;;;;;;56.25;44.25;;;;;-149.69;100.00;58464.25;6258125;22;8770;-91
2022/01/12 16:08:42;;;;;;;;;64.75;52.00;;;;;-149.69;100.00;58464.25;6284287;22;8758;-89
2022/01/12 16:11:09;;;;;;;;;68.00;51.50;;;;;-149.69;100.00;58464.25;6281223;22;8801;-89
2022/01/12 16:13:39;;;;;;;;;65.75;49.75;;;;;-149.69;100.00;58464.25;6278228;22;8766;-90
2022/01/12 16:16:06;;;;;;;;;64.00;51.25;;;;;-149.69;100.00;58464.25;6253472;22;12148;-89
2022/01/12 16:18:32;;;;;;;;;63.25;48.25;;;;;-149.69;100.00;58464.25;6282065;22;12160;-89
2022/01/12 16:21:00;;;;;;;;;68.00;53.00;;;;;-149.69;100.00;58464.25;6254472;22;11443;-89
2022/01/12 16:23:35;;;;;;;;;68.25;53.00;;;;;-149.69;100.00;58464.25;6282799;22;11520;-89
2022/01/12 16:26:03;;;;;;;;;70.50;54.25;;;;;-149.69;100.00;58464.25;6282203;22;11453;-88
2022/01/12 16:28:29;;;;;;;;;66.75;52.00;;;;;-149.69;100.00;58464.25;6281518;22;11522;-89
2022/01/12 16:31:00;;;;;;;;;62.25;50.25;;;;;-149.69;100.00;58464.25;6284451;22;11445;-89
2022/01/12 16:33:29;;;;;;;;;64.50;53.00;;;;;-149.69;100.00;58464.25;6283904;22;11567;-89
2022/01/12 16:35:56;;;;;;;;;62.75;50.00;;;;;-149.69;100.00;58464.25;6262365;22;11437;-89
2022/01/12 16:38:23;;;;;;;;;67.50;51.50;;;;;-149.69;100.00;58464.25;6254179;22;11416;-89
2022/01/12 16:40:50;;;;;;;;;65.00;50.75;;;;;-149.69;100.00;58464.25;6289920;22;11422;-89
2022/01/12 16:43:17;;;;;;;;;61.25;50.25;;;;;-149.69;100.00;58464.25;6286547;22;12129;-89
2022/01/12 16:45:42;;;;;;;;;71.50;54.00;;;;;-149.69;100.00;58464.25;6255891;22;11443;-89
2022/01/12 16:48:08;;;;;;;;;63.50;49.00;;;;;-149.69;100.00;58464.25;6280125;22;11427;-89
2022/01/12 16:50:35;;;;;;;;;72.50;54.25;;;;;-149.69;100.00;58464.25;6282716;22;8801;-88
2022/01/12 16:53:01;;;;;;;;;63.75;49.50;;;;;-149.69;100.00;58464.25;6254242;22;9513;-89
2022/01/12 16:55:27;;;;;;;;;62.50;49.50;;;;;-149.69;100.00;58464.25;6279596;22;11425;-89
2022/01/12 16:57:53;;;;;;;;;67.25;51.25;;;;;-149.69;100.00;58464.25;6282291;22;8722;-89
2022/01/12 17:00:18;;;;;;;;;67.00;52.25;;;;;-149.69;100.00;58464.25;6254992;22;12174;-89
2022/01/12 17:02:44;;;;;;;;;67.75;55.50;;;;;-149.69;100.00;58464.25;6254328;22;8742;-89
2022/01/12 17:05:09;;;;;;;;;69.00;53.25;;;;;-149.69;100.00;58464.25;6283000;22;8754;-89
2022/01/12 17:07:35;;;;;;;;;73.50;54.75;;;;;-149.69;100.00;58464.25;6283087;22;8875;-92
2022/01/12 17:10:01;;;;;;;;;63.75;51.75;;;;;-149.69;100.00;58464.25;6283307;22;8742;-89
2022/01/12 17:12:26;;;;;;;;;68.50;54.50;;;;;-149.69;100.00;58464.25;6283279;22;11513;-89
2022/01/12 17:14:51;;;;;;;;;69.50;54.75;;;;;-149.69;100.00;58464.25;6284312;22;8774;-93
2022/01/12 17:17:23;;;;;;;;;71.25;53.50;;;;;-149.69;100.00;58464.25;6255742;22;8750;-88
2022/01/12 17:19:49;;;;;;;;;67.75;51.50;;;;;-149.69;100.00;58464.25;6281355;22;8781;-91
2022/01/12 17:22:16;;;;;;;;;69.00;51.25;;;;;-149.69;100.00;58464.25;6285568;22;11344;-87
2022/01/12 17:25:00;;;;;;;;;71.75;53.00;;;;;-149.69;100.00;58464.25;6250868;22;11557;-88
2022/01/12 17:27:28;;;;;;;;;68.50;53.50;;;;;-149.69;100.00;58464.25;6247792;22;11496;-87
2022/01/12 17:29:57;;;;;;;;;63.75;52.25;;;;;-149.69;100.00;58464.25;6226971;22;11508;-91
2022/01/12 17:32:26;;;;;;;;;70.00;52.50;;;;;-149.69;100.00;58464.25;6226577;22;11483;-88
2022/01/12 17:34:52;;;;;;;;;65.00;51.25;;;;;-149.69;100.00;58464.25;6249158;22;11467;-88
2022/01/12 17:37:17;;;;;;;;;73.75;55.00;;;;;-149.69;100.00;58464.25;6222661;22;11504;-88
2022/01/12 17:39:46;;;;;;;;;73.50;56.50;;;;;-149.69;100.00;58464.25;6222641;22;8759;-88
2022/01/12 17:42:14;;;;;;;;;81.25;59.00;;;;;-149.69;100.00;58464.25;6221257;22;8748;-87
2022/01/12 17:44:45;;;;;;;;;77.75;58.00;;;;;-149.69;100.00;58464.25;6219782;23;11502;-88
2022/01/12 17:47:14;;;;;;;;;72.75;56.25;;;;;-149.69;100.00;58464.25;6223475;22;11513;-88
2022/01/12 17:52:27;;;;;;;;;77.00;58.25;;;;;-149.69;100.00;58464.25;6221317;23;11512;-88
2022/01/12 17:55:20;;;;;;;;;76.25;58.75;;;;;-149.69;100.00;58464.25;6222805;22;11550;-88
2022/01/12 17:57:45;;;;;;;;;74.75;60.00;;;;;-149.69;100.00;58464.25;6218730;23;12175;-88
2022/01/12 18:00:20;;;;;;;;;69.25;52.25;;;;;-149.69;100.00;58464.25;6221153;22;11548;-88
2022/01/12 18:02:45;;;;;;;;;75.50;58.25;;;;;-149.69;100.00;58464.25;6222340;22;8850;-88
2022/01/12 18:05:11;;;;;;;;;70.50;54.50;;;;;-149.69;100.00;58464.25;6224106;22;11562;-89
2022/01/12 18:07:37;;;;;;;;;65.00;54.75;;;;;-149.69;100.00;58464.25;6226357;22;8747;-89
2022/01/12 18:10:07;;;;;;;;;65.00;51.25;;;;;-149.69;100.00;58464.25;6227510;22;8795;-89
2022/01/12 18:12:33;;;;;;;;;70.25;56.00;;;;;-149.69;100.00;58464.25;6249424;22;8736;-88
2022/01/12 18:14:59;;;;;;;;;68.00;54.25;;;;;-149.69;100.00;58464.25;6227606;22;11590;-89
2022/01/12 18:17:25;;;;;;;;;63.00;50.25;;;;;-149.69;100.00;58464.25;6224277;22;8892;-88
2022/01/12 18:19:53;;;;;;;;;71.00;56.75;;;;;-149.69;100.00;58464.25;6223619;22;11497;-89
2022/01/12 18:22:21;;;;;;;;;68.25;53.50;;;;;-149.69;100.00;58464.25;6221758;22;11560;-88
2022/01/12 18:24:47;;;;;;;;;60.00;49.75;;;;;-149.69;100.00;58464.25;6273774;22;11454;-89
2022/01/12 18:27:13;;;;;;;;;73.75;53.75;;;;;-149.69;100.00;58464.25;6284071;22;11487;-88
2022/01/12 18:29:41;;;;;;;;;68.25;54.75;;;;;-149.69;100.00;58464.25;6283174;22;11542;-89